sensor_id;sensor_type;location;lat;lon;timestamp;P1;durP1;ratioP1;P2;durP2;ratioP2
67675;SDS011;54456;48.436;10.028;2023-06-04T03:15:21;6.70;;;2.65;;
67675;SDS011;54456;48.436;10.028;2023-06-04T03:16:51;8.13;;;2.75;;
67675;SDS011;54456;48.436;10.028;2023-06-04T03:18:22;6.63;;;2.80;;
67675;SDS011;54456;48.436;10.028;2023-06-04T03:19:52;8.52;;;3.00;;
67675;SDS011;54456;48.436;10.028;2023-06-04T03:21:23;7.35;;;2.97;;
67675;SDS011;54456;48.436;10.028;2023-06-04T03:22:55;7.28;;;3.20;;
67675;SDS011;54456;48.436;10.028;2023-06-04T03:24:25;9.03;;;2.70;;
67675;SDS011;54456;48.436;10.028;2023-06-04T03:25:55;6.43;;;2.73;;
67675;SDS011;54456;48.436;10.028;2023-06-04T03:27:25;7.72;;;2.90;;
67675;SDS011;54456;48.436;10.028;2023-06-04T03:30:46;7.00;;;2.53;;
67675;SDS011;54456;48.436;10.028;2023-06-04T03:32:17;7.57;;;2.97;;
67675;SDS011;54456;48.436;10.028;2023-06-04T03:33:47;7.50;;;3.10;;
67675;SDS011;54456;48.436;10.028;2023-06-04T03:35:17;10.77;;;3.25;;
67675;SDS011;54456;48.436;10.028;2023-06-04T03:36:48;9.17;;;2.83;;
67675;SDS011;54456;48.436;10.028;2023-06-04T03:38:19;9.82;;;3.13;;
67675;SDS011;54456;48.436;10.028;2023-06-04T03:39:49;12.60;;;3.28;;
67675;SDS011;54456;48.436;10.028;2023-06-04T03:41:19;8.43;;;2.73;;
67675;SDS011;54456;48.436;10.028;2023-06-04T03:42:50;10.98;;;3.05;;
67675;SDS011;54456;48.436;10.028;2023-06-04T03:44:21;7.75;;;2.92;;
67675;SDS011;54456;48.436;10.028;2023-06-04T03:45:52;9.70;;;2.80;;
67675;SDS011;54456;48.436;10.028;2023-06-04T03:47:22;7.57;;;2.70;;
67675;SDS011;54456;48.436;10.028;2023-06-04T03:48:52;7.07;;;3.20;;
67675;SDS011;54456;48.436;10.028;2023-06-04T03:50:23;6.17;;;2.40;;
67675;SDS011;54456;48.436;10.028;2023-06-04T03:51:53;6.55;;;2.42;;
67675;SDS011;54456;48.436;10.028;2023-06-04T03:53:23;7.20;;;2.90;;
67675;SDS011;54456;48.436;10.028;2023-06-04T03:54:54;6.90;;;2.92;;
67675;SDS011;54456;48.436;10.028;2023-06-04T03:56:24;7.03;;;2.90;;
67675;SDS011;54456;48.436;10.028;2023-06-04T03:57:56;8.20;;;2.70;;
67675;SDS011;54456;48.436;10.028;2023-06-04T03:59:27;8.48;;;2.92;;
67675;SDS011;54456;48.436;10.028;2023-06-04T04:00:57;7.50;;;2.60;;
67675;SDS011;54456;48.436;10.028;2023-06-04T04:02:28;6.13;;;2.60;;
67675;SDS011;54456;48.436;10.028;2023-06-04T04:03:58;6.30;;;2.77;;
67675;SDS011;54456;48.436;10.028;2023-06-04T04:05:28;6.93;;;2.83;;
67675;SDS011;54456;48.436;10.028;2023-06-04T04:06:59;6.82;;;3.08;;
67675;SDS011;54456;48.436;10.028;2023-06-04T04:08:30;8.98;;;2.70;;
67675;SDS011;54456;48.436;10.028;2023-06-04T04:10:01;6.13;;;2.80;;
67675;SDS011;54456;48.436;10.028;2023-06-04T04:11:32;7.30;;;2.60;;
67675;SDS011;54456;48.436;10.028;2023-06-04T04:13:02;7.45;;;2.50;;
67675;SDS011;54456;48.436;10.028;2023-06-04T04:14:32;6.47;;;2.60;;
67675;SDS011;54456;48.436;10.028;2023-06-04T04:16:03;6.40;;;2.50;;
67675;SDS011;54456;48.436;10.028;2023-06-04T04:17:33;6.13;;;2.63;;
67675;SDS011;54456;48.436;10.028;2023-06-04T04:19:04;7.43;;;2.70;;
67675;SDS011;54456;48.436;10.028;2023-06-04T04:20:37;7.40;;;2.70;;
67675;SDS011;54456;48.436;10.028;2023-06-04T04:22:09;7.67;;;2.80;;
67675;SDS011;54456;48.436;10.028;2023-06-04T04:23:40;7.40;;;3.00;;
67675;SDS011;54456;48.436;10.028;2023-06-04T04:25:11;6.80;;;2.80;;
67675;SDS011;54456;48.436;10.028;2023-06-04T04:26:41;7.97;;;2.85;;
67675;SDS011;54456;48.436;10.028;2023-06-04T04:28:12;7.82;;;3.03;;
67675;SDS011;54456;48.436;10.028;2023-06-04T04:29:43;7.95;;;2.85;;
67675;SDS011;54456;48.436;10.028;2023-06-04T04:31:17;7.57;;;2.80;;
67675;SDS011;54456;48.436;10.028;2023-06-04T04:32:48;8.18;;;3.05;;
67675;SDS011;54456;48.436;10.028;2023-06-04T04:34:18;7.63;;;2.60;;
67675;SDS011;54456;48.436;10.028;2023-06-04T04:35:51;10.23;;;2.72;;
67675;SDS011;54456;48.436;10.028;2023-06-04T04:37:22;9.07;;;2.88;;
67675;SDS011;54456;48.436;10.028;2023-06-04T04:38:53;7.13;;;2.75;;
67675;SDS011;54456;48.436;10.028;2023-06-04T04:40:28;7.07;;;2.70;;
67675;SDS011;54456;48.436;10.028;2023-06-04T04:41:59;6.47;;;2.80;;
67675;SDS011;54456;48.436;10.028;2023-06-04T04:43:30;7.28;;;2.72;;
67675;SDS011;54456;48.436;10.028;2023-06-04T04:45:02;7.68;;;3.10;;
67675;SDS011;54456;48.436;10.028;2023-06-04T04:46:32;7.30;;;2.50;;
67675;SDS011;54456;48.436;10.028;2023-06-04T04:48:02;8.25;;;2.60;;
67675;SDS011;54456;48.436;10.028;2023-06-04T04:49:33;7.00;;;2.97;;
67675;SDS011;54456;48.436;10.028;2023-06-04T04:51:03;5.90;;;2.70;;
67675;SDS011;54456;48.436;10.028;2023-06-04T04:52:33;6.25;;;2.67;;
67675;SDS011;54456;48.436;10.028;2023-06-04T04:54:04;8.18;;;3.10;;
67675;SDS011;54456;48.436;10.028;2023-06-04T04:55:34;7.60;;;2.72;;
67675;SDS011;54456;48.436;10.028;2023-06-04T04:57:04;6.93;;;3.20;;
67675;SDS011;54456;48.436;10.028;2023-06-04T04:58:37;5.93;;;2.63;;
67675;SDS011;54456;48.436;10.028;2023-06-04T05:00:07;7.87;;;3.10;;
67675;SDS011;54456;48.436;10.028;2023-06-04T05:01:39;7.03;;;2.70;;
67675;SDS011;54456;48.436;10.028;2023-06-04T05:03:09;8.70;;;2.70;;
67675;SDS011;54456;48.436;10.028;2023-06-04T05:04:40;7.72;;;2.55;;
67675;SDS011;54456;48.436;10.028;2023-06-04T05:06:10;6.63;;;2.75;;
67675;SDS011;54456;48.436;10.028;2023-06-04T05:07:40;7.97;;;2.78;;
67675;SDS011;54456;48.436;10.028;2023-06-04T05:09:11;8.88;;;2.95;;
67675;SDS011;54456;48.436;10.028;2023-06-04T05:10:41;6.00;;;2.47;;
67675;SDS011;54456;48.436;10.028;2023-06-04T05:12:12;7.93;;;2.50;;
67675;SDS011;54456;48.436;10.028;2023-06-04T05:13:42;6.70;;;2.55;;
67675;SDS011;54456;48.436;10.028;2023-06-04T05:15:12;6.97;;;2.70;;
67675;SDS011;54456;48.436;10.028;2023-06-04T05:16:44;6.05;;;2.40;;
67675;SDS011;54456;48.436;10.028;2023-06-04T05:18:15;7.47;;;2.60;;
67675;SDS011;54456;48.436;10.028;2023-06-04T05:19:46;7.15;;;2.30;;
67675;SDS011;54456;48.436;10.028;2023-06-04T05:21:17;5.82;;;2.10;;
67675;SDS011;54456;48.436;10.028;2023-06-04T05:22:47;7.20;;;2.60;;
67675;SDS011;54456;48.436;10.028;2023-06-04T05:24:18;8.27;;;2.80;;
67675;SDS011;54456;48.436;10.028;2023-06-04T05:25:48;7.53;;;2.60;;
67675;SDS011;54456;48.436;10.028;2023-06-04T05:27:22;8.80;;;2.80;;
67675;SDS011;54456;48.436;10.028;2023-06-04T05:28:52;6.07;;;2.60;;
67675;SDS011;54456;48.436;10.028;2023-06-04T05:30:22;8.05;;;2.60;;
67675;SDS011;54456;48.436;10.028;2023-06-04T05:31:53;5.97;;;2.30;;
67675;SDS011;54456;48.436;10.028;2023-06-04T05:33:23;6.60;;;2.37;;
67675;SDS011;54456;48.436;10.028;2023-06-04T05:34:57;5.97;;;2.30;;
67675;SDS011;54456;48.436;10.028;2023-06-04T05:36:28;6.57;;;2.40;;
67675;SDS011;54456;48.436;10.028;2023-06-04T05:37:59;7.07;;;2.65;;
67675;SDS011;54456;48.436;10.028;2023-06-04T05:39:30;7.05;;;2.58;;
67675;SDS011;54456;48.436;10.028;2023-06-04T05:41:01;7.40;;;2.87;;
67675;SDS011;54456;48.436;10.028;2023-06-04T05:42:31;6.65;;;2.42;;
67675;SDS011;54456;48.436;10.028;2023-06-04T05:44:02;6.25;;;2.40;;
67675;SDS011;54456;48.436;10.028;2023-06-04T05:45:33;7.32;;;2.72;;
67675;SDS011;54456;48.436;10.028;2023-06-04T05:47:03;6.97;;;2.37;;
67675;SDS011;54456;48.436;10.028;2023-06-04T05:48:34;6.25;;;2.60;;
67675;SDS011;54456;48.436;10.028;2023-06-04T05:50:04;6.57;;;2.70;;
67675;SDS011;54456;48.436;10.028;2023-06-04T05:51:35;7.15;;;2.50;;
67675;SDS011;54456;48.436;10.028;2023-06-04T05:53:06;7.00;;;2.55;;
67675;SDS011;54456;48.436;10.028;2023-06-04T05:54:37;8.40;;;2.40;;
67675;SDS011;54456;48.436;10.028;2023-06-04T05:56:07;7.13;;;2.78;;
67675;SDS011;54456;48.436;10.028;2023-06-04T05:57:38;5.90;;;2.58;;
67675;SDS011;54456;48.436;10.028;2023-06-04T05:59:08;6.67;;;2.40;;
67675;SDS011;54456;48.436;10.028;2023-06-04T06:00:39;6.28;;;2.45;;
67675;SDS011;54456;48.436;10.028;2023-06-04T06:02:10;7.05;;;2.60;;
67675;SDS011;54456;48.436;10.028;2023-06-04T06:03:40;6.78;;;2.53;;
67675;SDS011;54456;48.436;10.028;2023-06-04T06:05:10;7.47;;;2.60;;
67675;SDS011;54456;48.436;10.028;2023-06-04T06:06:41;7.20;;;2.58;;
67675;SDS011;54456;48.436;10.028;2023-06-04T06:08:18;7.50;;;2.50;;
67675;SDS011;54456;48.436;10.028;2023-06-04T06:09:48;6.40;;;2.40;;
67675;SDS011;54456;48.436;10.028;2023-06-04T06:11:18;9.27;;;2.53;;
67675;SDS011;54456;48.436;10.028;2023-06-04T06:12:49;8.10;;;2.53;;
67675;SDS011;54456;48.436;10.028;2023-06-04T06:14:19;6.82;;;2.30;;
67675;SDS011;54456;48.436;10.028;2023-06-04T06:15:50;6.55;;;2.40;;
67675;SDS011;54456;48.436;10.028;2023-06-04T06:17:22;8.25;;;2.72;;
67675;SDS011;54456;48.436;10.028;2023-06-04T06:18:53;7.10;;;2.42;;
67675;SDS011;54456;48.436;10.028;2023-06-04T06:20:24;6.22;;;2.30;;
67675;SDS011;54456;48.436;10.028;2023-06-04T06:21:54;7.00;;;2.60;;
67675;SDS011;54456;48.436;10.028;2023-06-04T06:23:25;6.15;;;2.40;;
67675;SDS011;54456;48.436;10.028;2023-06-04T06:24:56;7.90;;;2.42;;
67675;SDS011;54456;48.436;10.028;2023-06-04T06:26:26;7.32;;;2.42;;
67675;SDS011;54456;48.436;10.028;2023-06-04T06:27:57;22.35;;;2.80;;
67675;SDS011;54456;48.436;10.028;2023-06-04T06:29:27;7.60;;;2.63;;
67675;SDS011;54456;48.436;10.028;2023-06-04T06:30:57;6.85;;;2.50;;
67675;SDS011;54456;48.436;10.028;2023-06-04T06:32:28;7.43;;;2.60;;
67675;SDS011;54456;48.436;10.028;2023-06-04T06:33:58;7.10;;;2.67;;
67675;SDS011;54456;48.436;10.028;2023-06-04T06:35:28;7.93;;;2.90;;
67675;SDS011;54456;48.436;10.028;2023-06-04T06:36:59;7.38;;;2.80;;
67675;SDS011;54456;48.436;10.028;2023-06-04T06:38:29;6.85;;;2.85;;
67675;SDS011;54456;48.436;10.028;2023-06-04T06:40:01;7.35;;;2.60;;
67675;SDS011;54456;48.436;10.028;2023-06-04T06:41:32;6.80;;;2.90;;
67675;SDS011;54456;48.436;10.028;2023-06-04T06:43:02;6.80;;;2.58;;
67675;SDS011;54456;48.436;10.028;2023-06-04T06:44:32;8.17;;;2.80;;
67675;SDS011;54456;48.436;10.028;2023-06-04T06:46:03;7.90;;;3.20;;
67675;SDS011;54456;48.436;10.028;2023-06-04T06:47:33;8.45;;;2.63;;
67675;SDS011;54456;48.436;10.028;2023-06-04T06:49:03;8.20;;;2.72;;
67675;SDS011;54456;48.436;10.028;2023-06-04T06:50:34;6.47;;;2.85;;
67675;SDS011;54456;48.436;10.028;2023-06-04T06:52:05;7.00;;;2.70;;
67675;SDS011;54456;48.436;10.028;2023-06-04T06:53:36;6.88;;;2.80;;
67675;SDS011;54456;48.436;10.028;2023-06-04T06:55:06;8.13;;;2.80;;
67675;SDS011;54456;48.436;10.028;2023-06-04T06:56:37;6.20;;;2.40;;
67675;SDS011;54456;48.436;10.028;2023-06-04T06:58:07;6.97;;;2.53;;
67675;SDS011;54456;48.436;10.028;2023-06-04T06:59:38;7.28;;;2.90;;
67675;SDS011;54456;48.436;10.028;2023-06-04T07:01:08;8.23;;;2.95;;
67675;SDS011;54456;48.436;10.028;2023-06-04T07:02:38;8.65;;;2.88;;
67675;SDS011;54456;48.436;10.028;2023-06-04T07:04:09;7.78;;;3.00;;
67675;SDS011;54456;48.436;10.028;2023-06-04T07:05:39;7.50;;;3.10;;
67675;SDS011;54456;48.436;10.028;2023-06-04T07:07:09;8.00;;;2.80;;
67675;SDS011;54456;48.436;10.028;2023-06-04T07:08:40;7.88;;;2.65;;
67675;SDS011;54456;48.436;10.028;2023-06-04T07:10:12;7.13;;;2.90;;
67675;SDS011;54456;48.436;10.028;2023-06-04T07:11:43;7.05;;;2.53;;
67675;SDS011;54456;48.436;10.028;2023-06-04T07:13:14;7.43;;;2.80;;
67675;SDS011;54456;48.436;10.028;2023-06-04T07:14:46;6.47;;;2.80;;
67675;SDS011;54456;48.436;10.028;2023-06-04T07:16:19;6.38;;;2.60;;
67675;SDS011;54456;48.436;10.028;2023-06-04T07:17:50;7.53;;;2.65;;
67675;SDS011;54456;48.436;10.028;2023-06-04T07:19:20;7.43;;;3.03;;
67675;SDS011;54456;48.436;10.028;2023-06-04T07:20:51;8.00;;;3.20;;
67675;SDS011;54456;48.436;10.028;2023-06-04T07:22:22;7.00;;;2.83;;
67675;SDS011;54456;48.436;10.028;2023-06-04T07:23:53;7.90;;;2.90;;
67675;SDS011;54456;48.436;10.028;2023-06-04T07:25:23;9.27;;;3.00;;
67675;SDS011;54456;48.436;10.028;2023-06-04T07:26:53;7.75;;;2.90;;
67675;SDS011;54456;48.436;10.028;2023-06-04T07:28:24;6.80;;;3.17;;
67675;SDS011;54456;48.436;10.028;2023-06-04T07:29:54;9.18;;;3.25;;
67675;SDS011;54456;48.436;10.028;2023-06-04T07:31:24;7.45;;;3.00;;
67675;SDS011;54456;48.436;10.028;2023-06-04T07:32:55;6.73;;;2.70;;
67675;SDS011;54456;48.436;10.028;2023-06-04T07:34:25;8.03;;;3.30;;
67675;SDS011;54456;48.436;10.028;2023-06-04T07:35:55;7.07;;;2.93;;
67675;SDS011;54456;48.436;10.028;2023-06-04T07:37:26;8.00;;;2.97;;
67675;SDS011;54456;48.436;10.028;2023-06-04T07:38:56;6.80;;;2.80;;
67675;SDS011;54456;48.436;10.028;2023-06-04T07:40:26;7.25;;;3.10;;
67675;SDS011;54456;48.436;10.028;2023-06-04T07:41:57;8.82;;;3.10;;
67675;SDS011;54456;48.436;10.028;2023-06-04T07:43:27;9.17;;;3.00;;
67675;SDS011;54456;48.436;10.028;2023-06-04T07:44:58;9.10;;;3.27;;
67675;SDS011;54456;48.436;10.028;2023-06-04T07:46:28;8.50;;;3.03;;
67675;SDS011;54456;48.436;10.028;2023-06-04T07:47:58;9.73;;;3.40;;
67675;SDS011;54456;48.436;10.028;2023-06-04T07:49:29;8.70;;;3.20;;
67675;SDS011;54456;48.436;10.028;2023-06-04T07:51:00;8.60;;;3.08;;
67675;SDS011;54456;48.436;10.028;2023-06-04T07:52:31;8.07;;;3.17;;
67675;SDS011;54456;48.436;10.028;2023-06-04T07:54:02;9.70;;;3.28;;
67675;SDS011;54456;48.436;10.028;2023-06-04T07:55:32;7.30;;;2.88;;
67675;SDS011;54456;48.436;10.028;2023-06-04T07:57:03;9.73;;;3.10;;
67675;SDS011;54456;48.436;10.028;2023-06-04T07:58:34;7.72;;;2.80;;
67675;SDS011;54456;48.436;10.028;2023-06-04T08:00:05;7.40;;;2.85;;
67675;SDS011;54456;48.436;10.028;2023-06-04T08:01:37;9.20;;;3.13;;
67675;SDS011;54456;48.436;10.028;2023-06-04T08:03:07;7.60;;;3.00;;
67675;SDS011;54456;48.436;10.028;2023-06-04T08:04:38;7.07;;;2.80;;
67675;SDS011;54456;48.436;10.028;2023-06-04T08:06:09;9.73;;;3.42;;
67675;SDS011;54456;48.436;10.028;2023-06-04T08:07:40;8.82;;;2.80;;
67675;SDS011;54456;48.436;10.028;2023-06-04T08:09:11;9.18;;;3.25;;
67675;SDS011;54456;48.436;10.028;2023-06-04T08:10:42;8.75;;;3.10;;
67675;SDS011;54456;48.436;10.028;2023-06-04T08:12:12;9.05;;;3.35;;
67675;SDS011;54456;48.436;10.028;2023-06-04T08:13:43;10.57;;;3.60;;
67675;SDS011;54456;48.436;10.028;2023-06-04T08:15:13;6.97;;;3.07;;
67675;SDS011;54456;48.436;10.028;2023-06-04T08:16:43;9.15;;;3.40;;
67675;SDS011;54456;48.436;10.028;2023-06-04T08:18:14;8.23;;;3.17;;
67675;SDS011;54456;48.436;10.028;2023-06-04T08:19:44;8.90;;;3.30;;
67675;SDS011;54456;48.436;10.028;2023-06-04T08:21:21;8.17;;;2.77;;
67675;SDS011;54456;48.436;10.028;2023-06-04T08:22:55;9.15;;;3.25;;
67675;SDS011;54456;48.436;10.028;2023-06-04T08:24:25;8.40;;;3.50;;
67675;SDS011;54456;48.436;10.028;2023-06-04T08:25:55;8.77;;;3.00;;
67675;SDS011;54456;48.436;10.028;2023-06-04T08:27:26;8.55;;;3.38;;
67675;SDS011;54456;48.436;10.028;2023-06-04T08:28:56;7.63;;;3.03;;
67675;SDS011;54456;48.436;10.028;2023-06-04T08:30:27;8.80;;;3.00;;
67675;SDS011;54456;48.436;10.028;2023-06-04T08:31:57;11.50;;;3.47;;
67675;SDS011;54456;48.436;10.028;2023-06-04T08:33:28;8.32;;;3.20;;
67675;SDS011;54456;48.436;10.028;2023-06-04T08:34:58;6.77;;;2.97;;
67675;SDS011;54456;48.436;10.028;2023-06-04T08:36:28;9.48;;;3.40;;
67675;SDS011;54456;48.436;10.028;2023-06-04T08:37:59;7.90;;;2.90;;
67675;SDS011;54456;48.436;10.028;2023-06-04T08:39:29;8.02;;;3.03;;
67675;SDS011;54456;48.436;10.028;2023-06-04T08:41:09;9.35;;;3.33;;
67675;SDS011;54456;48.436;10.028;2023-06-04T08:42:43;9.10;;;3.40;;
67675;SDS011;54456;48.436;10.028;2023-06-04T08:45:49;9.23;;;3.17;;
67675;SDS011;54456;48.436;10.028;2023-06-04T08:47:20;8.13;;;3.80;;
67675;SDS011;54456;48.436;10.028;2023-06-04T08:48:52;7.55;;;2.83;;
67675;SDS011;54456;48.436;10.028;2023-06-04T08:50:24;7.60;;;3.17;;
67675;SDS011;54456;48.436;10.028;2023-06-04T08:51:55;6.82;;;3.13;;
67675;SDS011;54456;48.436;10.028;2023-06-04T08:53:26;7.03;;;2.97;;
67675;SDS011;54456;48.436;10.028;2023-06-04T08:54:56;8.32;;;3.08;;
67675;SDS011;54456;48.436;10.028;2023-06-04T08:56:27;6.70;;;2.78;;
67675;SDS011;54456;48.436;10.028;2023-06-04T08:58:02;7.55;;;3.50;;
67675;SDS011;54456;48.436;10.028;2023-06-04T08:59:33;6.78;;;2.95;;
67675;SDS011;54456;48.436;10.028;2023-06-04T09:01:03;8.75;;;3.13;;
67675;SDS011;54456;48.436;10.028;2023-06-04T09:02:35;7.63;;;2.70;;
67675;SDS011;54456;48.436;10.028;2023-06-04T09:04:09;7.68;;;3.00;;
67675;SDS011;54456;48.436;10.028;2023-06-04T09:05:40;7.50;;;3.22;;
67675;SDS011;54456;48.436;10.028;2023-06-04T09:07:15;7.13;;;2.95;;
67675;SDS011;54456;48.436;10.028;2023-06-04T09:08:47;7.53;;;3.10;;
67675;SDS011;54456;48.436;10.028;2023-06-04T09:10:18;7.13;;;3.05;;
67675;SDS011;54456;48.436;10.028;2023-06-04T09:11:52;7.30;;;3.00;;
67675;SDS011;54456;48.436;10.028;2023-06-04T09:13:26;7.85;;;2.95;;
67675;SDS011;54456;48.436;10.028;2023-06-04T09:14:58;7.65;;;2.90;;
67675;SDS011;54456;48.436;10.028;2023-06-04T09:16:28;7.60;;;3.22;;
67675;SDS011;54456;48.436;10.028;2023-06-04T09:18:06;8.57;;;3.10;;
67675;SDS011;54456;48.436;10.028;2023-06-04T09:19:36;7.75;;;3.30;;
67675;SDS011;54456;48.436;10.028;2023-06-04T09:21:07;8.55;;;3.20;;
67675;SDS011;54456;48.436;10.028;2023-06-04T09:22:38;9.13;;;3.17;;
67675;SDS011;54456;48.436;10.028;2023-06-04T09:24:08;8.70;;;2.93;;
67675;SDS011;54456;48.436;10.028;2023-06-04T09:25:42;7.32;;;3.00;;
67675;SDS011;54456;48.436;10.028;2023-06-04T09:27:14;7.47;;;3.13;;
67675;SDS011;54456;48.436;10.028;2023-06-04T09:28:45;8.10;;;3.13;;
67675;SDS011;54456;48.436;10.028;2023-06-04T09:30:16;7.00;;;3.15;;
67675;SDS011;54456;48.436;10.028;2023-06-04T09:31:47;6.72;;;3.22;;
67675;SDS011;54456;48.436;10.028;2023-06-04T09:33:17;7.78;;;3.10;;
67675;SDS011;54456;48.436;10.028;2023-06-04T09:34:48;7.70;;;3.10;;
67675;SDS011;54456;48.436;10.028;2023-06-04T09:36:18;8.00;;;2.95;;
67675;SDS011;54456;48.436;10.028;2023-06-04T09:37:52;6.68;;;2.90;;
67675;SDS011;54456;48.436;10.028;2023-06-04T09:39:26;7.43;;;3.15;;
67675;SDS011;54456;48.436;10.028;2023-06-04T09:40:57;7.07;;;3.22;;
67675;SDS011;54456;48.436;10.028;2023-06-04T09:42:27;8.50;;;2.92;;
67675;SDS011;54456;48.436;10.028;2023-06-04T09:44:01;7.97;;;3.08;;
67675;SDS011;54456;48.436;10.028;2023-06-04T09:45:35;7.57;;;2.88;;
67675;SDS011;54456;48.436;10.028;2023-06-04T09:47:06;6.97;;;3.00;;
67675;SDS011;54456;48.436;10.028;2023-06-04T09:48:36;9.98;;;3.25;;
67675;SDS011;54456;48.436;10.028;2023-06-04T09:50:07;6.10;;;2.83;;
67675;SDS011;54456;48.436;10.028;2023-06-04T09:51:46;6.72;;;2.90;;
67675;SDS011;54456;48.436;10.028;2023-06-04T09:53:18;6.35;;;3.00;;
67675;SDS011;54456;48.436;10.028;2023-06-04T09:54:52;6.55;;;2.92;;
67675;SDS011;54456;48.436;10.028;2023-06-04T09:56:22;7.28;;;2.95;;
67675;SDS011;54456;48.436;10.028;2023-06-04T09:57:53;7.80;;;2.95;;
67675;SDS011;54456;48.436;10.028;2023-06-04T09:59:23;8.30;;;3.10;;
67675;SDS011;54456;48.436;10.028;2023-06-04T10:00:56;8.57;;;3.28;;
67675;SDS011;54456;48.436;10.028;2023-06-04T10:02:28;8.40;;;3.20;;
67675;SDS011;54456;48.436;10.028;2023-06-04T10:04:02;7.72;;;3.30;;
67675;SDS011;54456;48.436;10.028;2023-06-04T10:05:33;7.65;;;3.40;;
67675;SDS011;54456;48.436;10.028;2023-06-04T10:07:05;7.25;;;3.03;;
67675;SDS011;54456;48.436;10.028;2023-06-04T10:08:36;9.55;;;3.28;;
67675;SDS011;54456;48.436;10.028;2023-06-04T10:10:16;7.07;;;3.17;;
67675;SDS011;54456;48.436;10.028;2023-06-04T10:11:52;7.32;;;3.05;;
67675;SDS011;54456;48.436;10.028;2023-06-04T10:13:26;7.47;;;3.33;;
67675;SDS011;54456;48.436;10.028;2023-06-04T10:15:05;8.32;;;3.63;;
67675;SDS011;54456;48.436;10.028;2023-06-04T10:16:40;8.77;;;3.22;;
67675;SDS011;54456;48.436;10.028;2023-06-04T10:18:11;10.18;;;3.30;;
67675;SDS011;54456;48.436;10.028;2023-06-04T10:19:43;7.53;;;3.53;;
67675;SDS011;54456;48.436;10.028;2023-06-04T10:21:15;7.80;;;3.20;;
67675;SDS011;54456;48.436;10.028;2023-06-04T10:22:49;7.63;;;3.38;;
67675;SDS011;54456;48.436;10.028;2023-06-04T10:24:20;10.40;;;3.53;;
67675;SDS011;54456;48.436;10.028;2023-06-04T10:25:52;8.18;;;3.45;;
67675;SDS011;54456;48.436;10.028;2023-06-04T10:27:23;8.80;;;4.15;;
67675;SDS011;54456;48.436;10.028;2023-06-04T10:28:54;8.80;;;3.20;;
67675;SDS011;54456;48.436;10.028;2023-06-04T10:30:27;8.70;;;3.63;;
67675;SDS011;54456;48.436;10.028;2023-06-04T10:31:57;11.02;;;3.92;;
67675;SDS011;54456;48.436;10.028;2023-06-04T10:33:27;10.13;;;3.78;;
67675;SDS011;54456;48.436;10.028;2023-06-04T10:34:58;7.70;;;3.55;;
67675;SDS011;54456;48.436;10.028;2023-06-04T10:36:28;8.20;;;3.60;;
67675;SDS011;54456;48.436;10.028;2023-06-04T10:39:39;8.20;;;3.70;;
67675;SDS011;54456;48.436;10.028;2023-06-04T10:41:24;8.00;;;3.80;;
67675;SDS011;54456;48.436;10.028;2023-06-04T10:42:54;9.43;;;3.65;;
67675;SDS011;54456;48.436;10.028;2023-06-04T10:44:25;7.72;;;3.40;;
67675;SDS011;54456;48.436;10.028;2023-06-04T10:45:55;8.18;;;3.65;;
67675;SDS011;54456;48.436;10.028;2023-06-04T10:47:26;8.10;;;3.20;;
67675;SDS011;54456;48.436;10.028;2023-06-04T10:48:59;8.55;;;3.50;;
67675;SDS011;54456;48.436;10.028;2023-06-04T10:50:30;8.23;;;3.83;;
67675;SDS011;54456;48.436;10.028;2023-06-04T10:52:09;7.65;;;3.42;;
67675;SDS011;54456;48.436;10.028;2023-06-04T10:53:40;8.75;;;3.50;;
67675;SDS011;54456;48.436;10.028;2023-06-04T10:55:10;8.25;;;3.70;;
67675;SDS011;54456;48.436;10.028;2023-06-04T10:56:41;9.50;;;3.87;;
67675;SDS011;54456;48.436;10.028;2023-06-04T10:58:11;8.93;;;3.90;;
67675;SDS011;54456;48.436;10.028;2023-06-04T10:59:41;7.78;;;3.65;;
67675;SDS011;54456;48.436;10.028;2023-06-04T11:01:24;8.77;;;4.00;;
67675;SDS011;54456;48.436;10.028;2023-06-04T11:02:55;9.57;;;3.90;;
67675;SDS011;54456;48.436;10.028;2023-06-04T11:04:25;8.52;;;3.80;;
67675;SDS011;54456;48.436;10.028;2023-06-04T11:05:56;7.43;;;3.58;;
67675;SDS011;54456;48.436;10.028;2023-06-04T11:07:27;8.48;;;3.65;;
67675;SDS011;54456;48.436;10.028;2023-06-04T11:09:03;10.13;;;3.60;;
67675;SDS011;54456;48.436;10.028;2023-06-04T11:10:39;9.27;;;3.97;;
67675;SDS011;54456;48.436;10.028;2023-06-04T11:12:10;8.73;;;4.10;;
67675;SDS011;54456;48.436;10.028;2023-06-04T11:13:41;9.17;;;3.80;;
67675;SDS011;54456;48.436;10.028;2023-06-04T11:15:12;10.60;;;4.18;;
67675;SDS011;54456;48.436;10.028;2023-06-04T11:16:43;8.57;;;4.00;;
67675;SDS011;54456;48.436;10.028;2023-06-04T11:18:14;9.20;;;3.90;;
67675;SDS011;54456;48.436;10.028;2023-06-04T11:19:45;8.93;;;3.72;;
67675;SDS011;54456;48.436;10.028;2023-06-04T11:21:16;7.88;;;3.95;;
67675;SDS011;54456;48.436;10.028;2023-06-04T11:22:50;8.03;;;4.20;;
67675;SDS011;54456;48.436;10.028;2023-06-04T11:24:28;8.88;;;4.28;;
67675;SDS011;54456;48.436;10.028;2023-06-04T11:25:59;8.38;;;3.90;;
67675;SDS011;54456;48.436;10.028;2023-06-04T11:27:32;7.85;;;3.90;;
67675;SDS011;54456;48.436;10.028;2023-06-04T11:29:07;9.60;;;4.00;;
67675;SDS011;54456;48.436;10.028;2023-06-04T11:30:38;8.23;;;4.13;;
67675;SDS011;54456;48.436;10.028;2023-06-04T11:32:09;9.83;;;4.40;;
67675;SDS011;54456;48.436;10.028;2023-06-04T11:33:43;8.50;;;3.80;;
67675;SDS011;54456;48.436;10.028;2023-06-04T11:35:14;9.00;;;4.10;;
67675;SDS011;54456;48.436;10.028;2023-06-04T11:36:45;10.52;;;3.95;;
67675;SDS011;54456;48.436;10.028;2023-06-04T11:38:16;9.88;;;4.07;;
67675;SDS011;54456;48.436;10.028;2023-06-04T11:39:46;7.47;;;3.60;;
67675;SDS011;54456;48.436;10.028;2023-06-04T11:41:17;10.18;;;4.13;;
67675;SDS011;54456;48.436;10.028;2023-06-04T11:42:47;8.98;;;3.85;;
67675;SDS011;54456;48.436;10.028;2023-06-04T11:44:19;8.40;;;4.32;;
67675;SDS011;54456;48.436;10.028;2023-06-04T11:45:49;8.82;;;3.70;;
67675;SDS011;54456;48.436;10.028;2023-06-04T11:47:20;7.55;;;3.70;;
67675;SDS011;54456;48.436;10.028;2023-06-04T11:48:51;8.15;;;4.18;;
67675;SDS011;54456;48.436;10.028;2023-06-04T11:50:23;9.13;;;4.30;;
67675;SDS011;54456;48.436;10.028;2023-06-04T11:51:56;7.32;;;3.97;;
67675;SDS011;54456;48.436;10.028;2023-06-04T11:53:28;9.45;;;4.10;;
67675;SDS011;54456;48.436;10.028;2023-06-04T11:54:58;9.50;;;3.95;;
67675;SDS011;54456;48.436;10.028;2023-06-04T11:56:29;8.30;;;4.10;;
67675;SDS011;54456;48.436;10.028;2023-06-04T11:57:59;8.52;;;4.28;;
67675;SDS011;54456;48.436;10.028;2023-06-04T11:59:30;8.63;;;4.00;;
67675;SDS011;54456;48.436;10.028;2023-06-04T12:01:01;8.70;;;4.18;;
67675;SDS011;54456;48.436;10.028;2023-06-04T12:02:32;7.95;;;3.95;;
67675;SDS011;54456;48.436;10.028;2023-06-04T12:04:10;9.05;;;3.75;;
67675;SDS011;54456;48.436;10.028;2023-06-04T12:05:42;9.18;;;4.10;;
67675;SDS011;54456;48.436;10.028;2023-06-04T12:07:18;8.30;;;3.70;;
67675;SDS011;54456;48.436;10.028;2023-06-04T12:08:51;9.15;;;3.53;;
67675;SDS011;54456;48.436;10.028;2023-06-04T12:10:24;8.63;;;3.65;;
67675;SDS011;54456;48.436;10.028;2023-06-04T12:11:59;8.18;;;3.80;;
67675;SDS011;54456;48.436;10.028;2023-06-04T12:13:36;8.68;;;3.90;;
67675;SDS011;54456;48.436;10.028;2023-06-04T12:15:07;8.43;;;3.90;;
67675;SDS011;54456;48.436;10.028;2023-06-04T12:16:39;8.65;;;4.00;;
67675;SDS011;54456;48.436;10.028;2023-06-04T12:18:10;9.00;;;3.72;;
67675;SDS011;54456;48.436;10.028;2023-06-04T12:19:47;7.32;;;3.67;;
67675;SDS011;54456;48.436;10.028;2023-06-04T12:21:22;9.30;;;3.92;;